»·PEaware :: NKS4785 KPHX-KSAN

NKS4785 :: KPHX-KSAN

FLIGHT INFORMATION

Flight Status: Arrived
Operator:
Spirit Airlines
More flights by this operator :: More flights under this callsign
Pilot: Robert N. (17753)
Aircraft: AIRBUS A320
(A320)
More flights by this aircraft type
Origin: KPHX Phoenix Sky Harbor Intl
United States
Destination: KSAN San Diego Intl-Lindbergh
United States
More flights between these airports :: More routes between these airports
Route: +FYRBD1 MOHAK J2 HOGGZ LUCKI1
File this flight plan on PilotEdge
Remarks: RMK / SIMBRIEF
Altitude:
(Current/Filed)
36,000ft
Speed:
(Current/Filed)
447kts
Departed: 08-Feb-20 10:47 AM
Arrived: 08-Feb-20 11:38 AM
Distance/Time
Traveled:
264nm/0:51
Distance/Time
To Go:
Arrived

Flight Plot

Page will automatically refresh every two minutes.

Flight plan parsing failed; only flown route is shown


Map Options




Map Legend


Flown Route
Filed Route
Departure Airport
Arrival Airport
Navaid (VOR, NDB)
Fix

Horizontal Profiles

Position Reports

Time Latitude Longitude Heading Altitude Ground
Speed
08-Feb-20 10:23 33.434310 -112.014492 95 1149ft 0kts
08-Feb-20 10:24 33.434310 -112.014492 95 1149ft 0kts
08-Feb-20 10:25 33.434310 -112.014492 95 1149ft 0kts
08-Feb-20 10:26 33.434310 -112.014492 95 1149ft 0kts
08-Feb-20 10:27 33.434310 -112.014492 95 1149ft 0kts
08-Feb-20 10:28 33.434310 -112.014492 95 1149ft 0kts
08-Feb-20 10:29 33.434310 -112.014492 95 1149ft 0kts
08-Feb-20 10:30 33.434310 -112.014492 95 1149ft 0kts
08-Feb-20 10:31 33.434310 -112.014492 95 1149ft 0kts
08-Feb-20 10:32 33.434310 -112.014492 95 1149ft 0kts
08-Feb-20 10:33 33.434310 -112.014492 95 1149ft 0kts
08-Feb-20 10:34 33.434310 -112.014492 95 1149ft 0kts
08-Feb-20 10:35 33.434323 -112.014668 95 1149ft 2kts
08-Feb-20 10:36 33.434388 -112.015558 95 1149ft 0kts
08-Feb-20 10:37 33.434389 -112.015563 95 1149ft 0kts
08-Feb-20 10:38 33.434389 -112.015562 95 1149ft 0kts
08-Feb-20 10:39 33.434389 -112.015560 95 1149ft 0kts
08-Feb-20 10:40 33.433826 -112.015449 188 1149ft 5kts
08-Feb-20 10:41 33.433156 -112.015601 204 1149ft 6kts
08-Feb-20 10:42 33.432844 -112.018840 267 1149ft 5kts
08-Feb-20 10:43 33.432853 -112.024103 258 1149ft 20kts
08-Feb-20 10:44 33.432237 -112.026988 174 1149ft 0kts
08-Feb-20 10:45 33.431081 -112.026425 97 1149ft 11kts
08-Feb-20 10:46 33.431069 -111.992318 89 1788ft 165kts
08-Feb-20 10:47 33.433198 -111.934199 88 3746ft 202kts
08-Feb-20 10:48 33.423707 -111.861697 140 6135ft 239kts
08-Feb-20 10:49 33.363006 -111.860410 224 9358ft 245kts
08-Feb-20 10:50 33.357042 -111.938792 275 12194ft 254kts
08-Feb-20 10:51 33.352201 -112.033840 242 13152ft 325kts
08-Feb-20 10:52 33.294130 -112.127713 234 14434ft 368kts
08-Feb-20 10:53 33.233030 -112.227551 235 16623ft 376kts
08-Feb-20 10:54 33.170052 -112.329534 235 18549ft 386kts
08-Feb-20 10:55 33.105490 -112.433865 235 20296ft 396kts
08-Feb-20 10:56 33.039005 -112.541047 234 21862ft 407kts
08-Feb-20 10:57 32.971245 -112.650996 238 23311ft 415kts
08-Feb-20 10:58 32.941340 -112.783501 261 24658ft 422kts
08-Feb-20 10:59 32.922863 -112.922588 260 25954ft 428kts
08-Feb-20 11:00 32.903693 -113.063445 260 27170ft 433kts
08-Feb-20 11:01 32.884070 -113.205741 260 28293ft 437kts
08-Feb-20 11:02 32.864463 -113.347124 260 29772ft 430kts
08-Feb-20 11:03 32.844879 -113.486960 259 31101ft 426kts
08-Feb-20 11:04 32.825415 -113.624948 259 32101ft 423kts
08-Feb-20 11:05 32.805814 -113.762760 259 32095ft 422kts
08-Feb-20 11:06 32.786119 -113.900159 259 32092ft 422kts
08-Feb-20 11:07 32.774690 -114.039439 268 32092ft 427kts
08-Feb-20 11:08 32.779385 -114.181024 271 32091ft 430kts
08-Feb-20 11:09 32.784879 -114.322851 271 32094ft 430kts
08-Feb-20 11:10 32.807683 -114.462467 286 32098ft 434kts
08-Feb-20 11:11 32.845836 -114.598180 285 32088ft 433kts
08-Feb-20 11:12 32.878657 -114.735779 272 32079ft 429kts
08-Feb-20 11:13 32.875661 -114.877211 266 32082ft 429kts
08-Feb-20 11:14 32.872810 -115.019231 267 32084ft 429kts
08-Feb-20 11:15 32.869277 -115.160705 267 32088ft 429kts
08-Feb-20 11:16 32.865743 -115.302511 267 31935ft 428kts
08-Feb-20 11:17 32.850856 -115.441868 259 27971ft 429kts
08-Feb-20 11:18 32.828430 -115.584528 259 24173ft 438kts
08-Feb-20 11:19 32.805597 -115.723637 259 21948ft 418kts
08-Feb-20 11:20 32.784566 -115.855909 263 19591ft 398kts
08-Feb-20 11:21 32.775019 -115.984207 264 17378ft 380kts
08-Feb-20 11:22 32.766293 -116.099167 264 15955ft 327kts
08-Feb-20 11:23 32.758185 -116.205550 264 14245ft 321kts
08-Feb-20 11:24 32.750341 -116.306800 264 13257ft 295kts
08-Feb-20 11:25 32.742894 -116.403276 264 11688ft 291kts
08-Feb-20 11:26 32.735469 -116.497703 264 10306ft 284kts
08-Feb-20 11:27 32.726503 -116.591097 262 8984ft 283kts
08-Feb-20 11:29 32.717833 -116.683499 264 7648ft 280kts
08-Feb-20 11:30 32.710989 -116.773346 264 6844ft 254kts
08-Feb-20 11:31 32.697805 -116.849695 247 6285ft 216kts
08-Feb-20 11:32 32.677321 -116.916689 250 4594ft 229kts
08-Feb-20 11:33 32.685204 -116.990145 285 3584ft 206kts
08-Feb-20 11:34 32.699075 -117.047435 284 3675ft 150kts
08-Feb-20 11:35 32.711660 -117.093923 285 2423ft 152kts
08-Feb-20 11:36 32.722169 -117.141976 284 848ft 141kts
08-Feb-20 11:37 32.732257 -117.184043 284 30ft 122kts
08-Feb-20 11:38 32.733601 -117.195250 223 29ft 4kts
08-Feb-20 11:39 32.733120 -117.195785 228 29ft 0kts
08-Feb-20 11:40 32.733120 -117.195785 228 29ft 0kts

Navigation Log

Ident Type
Flight plan parsing failed, navigation log unavailable